Time;durP1;ratioP1;P1;durP2;ratioP2;P2;SDS_P1;SDS_P2;PMS_P1;PMS_P2;Temp;Humidity;BMP_temperature;BMP_pressure;BME280_temperature;BME280_humidity;BME280_pressure;Samples;Min_cycle;Max_cycle;Signal;HPM_P1;HPM_P2
2023/06/02 00:00:48;;;;;;;3.72;2.53;;;26.00;37.00;;;;;;5068780;28;45399;-72
2023/06/02 00:03:15;;;;;;;2.67;2.30;;;26.00;37.00;;;;;;5068718;28;45399;-72
2023/06/02 00:05:44;;;;;;;2.55;2.35;;;26.00;37.00;;;;;;5068529;28;46677;-72
2023/06/02 00:08:11;;;;;;;2.47;2.28;;;26.00;37.70;;;;;;5068397;28;45353;-72
2023/06/02 00:10:39;;;;;;;3.03;2.60;;;26.00;37.10;;;;;;5068637;28;45347;-72
2023/06/02 00:13:07;;;;;;;4.55;2.40;;;25.90;37.10;;;;;;5068839;28;45281;-72
2023/06/02 00:15:34;;;;;;;3.75;2.33;;;25.90;37.10;;;;;;5068449;28;47523;-72
2023/06/02 00:18:01;;;;;;;3.15;2.53;;;25.90;37.20;;;;;;5068390;28;45285;-72
2023/06/02 00:20:28;;;;;;;3.80;2.35;;;25.90;37.30;;;;;;5068350;28;45301;-72
2023/06/02 00:22:57;;;;;;;2.85;2.50;;;25.80;37.20;;;;;;5068685;28;45442;-72
2023/06/02 00:25:23;;;;;;;3.05;2.70;;;25.80;37.30;;;;;;5068051;28;46401;-72
2023/06/02 00:27:52;;;;;;;4.68;2.67;;;25.80;37.20;;;;;;5068028;28;45401;-72
2023/06/02 00:30:18;;;;;;;2.92;2.35;;;25.70;37.30;;;;;;5068520;28;45457;-72
2023/06/02 00:32:45;;;;;;;2.90;2.58;;;25.70;37.20;;;;;;5068313;28;45482;-72
2023/06/02 00:35:12;;;;;;;2.50;2.30;;;25.70;37.30;;;;;;5068307;28;45253;-72
2023/06/02 00:37:39;;;;;;;2.95;2.40;;;25.70;37.40;;;;;;5067919;28;45346;-72
2023/06/02 00:40:07;;;;;;;2.90;2.40;;;25.60;37.30;;;;;;5068071;28;45385;-72
2023/06/02 00:42:34;;;;;;;2.90;2.25;;;25.60;37.30;;;;;;5068172;28;45578;-72
2023/06/02 00:45:02;;;;;;;2.78;2.58;;;25.60;37.40;;;;;;5067723;28;45540;-72
2023/06/02 00:47:29;;;;;;;2.83;2.40;;;25.60;37.40;;;;;;5067805;28;45139;-72
2023/06/02 00:49:56;;;;;;;2.95;2.50;;;25.60;37.50;;;;;;5068301;28;45402;-72
2023/06/02 00:52:23;;;;;;;3.33;2.55;;;25.50;37.50;;;;;;5067152;28;45342;-71
2023/06/02 00:54:50;;;;;;;2.70;2.50;;;25.50;37.50;;;;;;5067193;28;46391;-72
2023/06/02 00:57:17;;;;;;;2.80;2.60;;;25.50;37.60;;;;;;5067610;28;45247;-72
2023/06/02 00:59:44;;;;;;;2.63;2.42;;;25.50;37.60;;;;;;5067627;28;45237;-72
2023/06/02 01:02:13;;;;;;;2.92;2.45;;;25.40;37.50;;;;;;5067587;28;45492;-71
2023/06/02 01:04:40;;;;;;;3.55;2.72;;;25.40;37.50;;;;;;5067767;28;45392;-72
2023/06/02 01:07:07;;;;;;;2.60;2.40;;;25.40;37.60;;;;;;5067506;28;45349;-71
2023/06/02 01:09:34;;;;;;;2.88;2.50;;;25.40;37.60;;;;;;5067686;28;45222;-72
2023/06/02 01:12:01;;;;;;;3.35;2.80;;;25.30;37.70;;;;;;5067920;28;45261;-72
2023/06/02 01:14:28;;;;;;;3.38;2.42;;;25.30;37.60;;;;;;5067571;28;45360;-72
2023/06/02 01:16:54;;;;;;;2.83;2.63;;;25.30;37.80;;;;;;5067402;28;45304;-72
2023/06/02 01:19:26;;;;;;;2.83;2.63;;;25.30;37.70;;;;;;5067485;28;45321;-72
2023/06/02 01:21:57;;;;;;;3.65;2.72;;;25.30;37.70;;;;;;5067615;28;45440;-72
2023/06/02 01:24:30;;;;;;;2.70;2.50;;;25.30;37.80;;;;;;5067153;28;45368;-72
2023/06/02 01:26:58;;;;;;;3.20;2.63;;;25.20;37.70;;;;;;5067403;28;45342;-72
2023/06/02 01:29:25;;;;;;;4.05;2.80;;;25.20;37.80;;;;;;5067475;28;45452;-72
2023/06/02 01:31:53;;;;;;;3.15;2.83;;;25.20;37.80;;;;;;5067514;28;45354;-72
2023/06/02 01:34:22;;;;;;;3.08;2.78;;;25.10;37.70;;;;;;5067136;28;46736;-72
2023/06/02 01:36:50;;;;;;;3.78;3.15;;;25.10;37.90;;;;;;5067038;28;45353;-72
2023/06/02 01:39:17;;;;;;;3.70;3.03;;;25.10;37.80;;;;;;5067360;28;45351;-72
2023/06/02 01:41:46;;;;;;;3.35;3.00;;;25.10;37.90;;;;;;5067293;28;45422;-72
2023/06/02 01:44:13;;;;;;;3.13;2.83;;;25.00;37.80;;;;;;5065507;28;46362;-72
2023/06/02 01:46:40;;;;;;;4.05;2.97;;;25.00;37.80;;;;;;5067002;28;45185;-72
2023/06/02 01:49:14;;;;;;;3.05;2.85;;;25.00;37.90;;;;;;5067116;28;45329;-72
2023/06/02 01:51:41;;;;;;;3.88;3.22;;;25.00;37.90;;;;;;5068049;28;45341;-71
2023/06/02 01:54:08;;;;;;;4.18;3.13;;;25.00;38.00;;;;;;5067125;28;45351;-70
2023/06/02 01:56:34;;;;;;;3.25;2.95;;;24.90;37.90;;;;;;5067029;28;45355;-72
2023/06/02 01:59:03;;;;;;;4.15;2.92;;;24.90;38.00;;;;;;5067742;28;45347;-72
2023/06/02 02:01:30;;;;;;;4.18;3.35;;;24.90;37.90;;;;;;5067946;28;45382;-72
2023/06/02 02:03:57;;;;;;;3.30;3.00;;;24.90;38.10;;;;;;5066666;28;45677;-72
2023/06/02 02:06:29;;;;;;;4.13;3.72;;;24.80;38.00;;;;;;5067628;28;45486;-72
2023/06/02 02:08:56;;;;;;;3.45;3.15;;;24.80;38.10;;;;;;5067841;28;45280;-72
2023/06/02 02:11:23;;;;;;;3.17;2.78;;;24.80;38.00;;;;;;5067721;28;45367;-72
2023/06/02 02:13:51;;;;;;;3.92;3.53;;;24.80;38.10;;;;;;5067495;28;45368;-72
2023/06/02 02:16:19;;;;;;;3.80;3.40;;;24.70;38.00;;;;;;5067390;28;45369;-71
2023/06/02 02:18:46;;;;;;;3.63;3.10;;;24.70;38.00;;;;;;5067401;28;45292;-72
2023/06/02 02:21:13;;;;;;;3.50;3.20;;;24.70;38.10;;;;;;5067500;28;45422;-72
2023/06/02 02:23:40;;;;;;;4.35;3.20;;;24.70;38.10;;;;;;5067076;28;47021;-72
2023/06/02 02:26:07;;;;;;;3.35;3.00;;;24.70;38.10;;;;;;5067194;28;45362;-72
2023/06/02 02:28:34;;;;;;;3.80;3.35;;;24.70;38.10;;;;;;5067402;28;45301;-72
2023/06/02 02:31:01;;;;;;;3.65;3.08;;;24.60;38.10;;;;;;5067469;28;45461;-72
2023/06/02 02:33:29;;;;;;;4.60;3.50;;;24.60;38.10;;;;;;5067083;28;46250;-72
2023/06/02 02:35:56;;;;;;;3.50;3.13;;;24.60;38.10;;;;;;5066830;28;45371;-71
2023/06/02 02:38:23;;;;;;;3.58;2.95;;;24.60;38.20;;;;;;5067105;28;45288;-70
2023/06/02 02:40:50;;;;;;;3.78;3.25;;;24.50;38.20;;;;;;5066272;28;45487;-71
2023/06/02 02:43:17;;;;;;;3.45;3.13;;;24.50;38.20;;;;;;5066906;28;46530;-72
2023/06/02 02:45:44;;;;;;;4.07;3.50;;;24.50;38.20;;;;;;5066856;28;45586;-72
2023/06/02 02:48:11;;;;;;;4.07;3.38;;;24.50;38.20;;;;;;5067112;28;45367;-72
2023/06/02 02:50:39;;;;;;;3.95;3.60;;;24.50;38.30;;;;;;5067065;28;45338;-72
2023/06/02 02:53:06;;;;;;;3.65;3.30;;;24.50;38.30;;;;;;5067127;28;45376;-71
2023/06/02 02:55:33;;;;;;;6.07;3.53;;;24.40;38.30;;;;;;5066671;28;45375;-71
2023/06/02 02:58:00;;;;;;;3.78;3.10;;;24.40;38.30;;;;;;5066734;28;45372;-71
2023/06/02 03:00:28;;;;;;;4.47;3.35;;;24.40;38.30;;;;;;5066909;28;45297;-71
2023/06/02 03:02:56;;;;;;;4.93;3.63;;;24.40;38.30;;;;;;5066244;28;45507;-73
2023/06/02 03:05:23;;;;;;;5.78;3.65;;;24.30;38.30;;;;;;5066782;28;45317;-72
2023/06/02 03:07:51;;;;;;;4.13;3.53;;;24.30;38.30;;;;;;5066546;28;45333;-72
2023/06/02 03:10:18;;;;;;;4.38;3.05;;;24.30;38.30;;;;;;5066644;27;45502;-71
2023/06/02 03:12:45;;;;;;;3.55;3.22;;;24.30;38.30;;;;;;5066495;28;46629;-72
2023/06/02 03:15:12;;;;;;;4.68;3.38;;;24.20;38.40;;;;;;5066245;28;45209;-72
2023/06/02 03:17:41;;;;;;;4.32;3.50;;;24.20;38.40;;;;;;5066005;28;45323;-71
2023/06/02 03:20:09;;;;;;;4.85;3.33;;;24.20;38.40;;;;;;5066861;28;45536;-71
2023/06/02 03:22:36;;;;;;;4.85;3.60;;;24.20;38.50;;;;;;5066332;28;45460;-72
2023/06/02 03:25:06;;;;;;;4.20;3.22;;;24.20;38.40;;;;;;5066285;28;45388;-71
2023/06/02 03:27:33;;;;;;;3.85;3.45;;;24.20;38.50;;;;;;5066177;28;45391;-72
2023/06/02 03:30:00;;;;;;;4.30;3.58;;;24.20;38.50;;;;;;5066146;28;45436;-72
2023/06/02 03:32:26;;;;;;;5.03;3.45;;;24.10;38.50;;;;;;5066084;28;46334;-72
2023/06/02 03:34:53;;;;;;;4.18;3.50;;;24.10;38.50;;;;;;5066324;28;45524;-72
2023/06/02 03:37:20;;;;;;;4.78;3.67;;;24.10;38.60;;;;;;5066243;28;45370;-72
2023/06/02 03:39:47;;;;;;;3.30;3.00;;;24.10;38.50;;;;;;5066406;28;45324;-72
2023/06/02 03:42:15;;;;;;;3.38;3.05;;;24.10;38.60;;;;;;5063360;28;45249;-71
2023/06/02 03:44:42;;;;;;;3.75;3.42;;;24.00;38.50;;;;;;5066100;28;45222;-72
2023/06/02 03:47:09;;;;;;;4.10;3.70;;;24.00;38.60;;;;;;5065900;28;45309;-72
2023/06/02 03:49:36;;;;;;;4.07;3.42;;;24.00;38.60;;;;;;5066506;28;45478;-71
2023/06/02 03:52:03;;;;;;;3.17;2.78;;;24.00;38.60;;;;;;5065887;28;46738;-72
2023/06/02 03:54:30;;;;;;;3.53;3.22;;;24.00;38.70;;;;;;5066270;28;45298;-72
2023/06/02 03:56:56;;;;;;;4.72;3.50;;;23.90;38.60;;;;;;5066484;28;45367;-72
2023/06/02 03:59:25;;;;;;;5.70;3.72;;;23.90;38.60;;;;;;5066024;28;45512;-72
2023/06/02 04:01:51;;;;;;;4.28;3.38;;;23.90;38.70;;;;;;5065505;28;47301;-72
2023/06/02 04:04:18;;;;;;;3.80;3.42;;;23.90;38.70;;;;;;5065788;28;45304;-72
2023/06/02 04:06:45;;;;;;;3.88;2.92;;;23.90;38.70;;;;;;5065936;28;45178;-72
2023/06/02 04:09:12;;;;;;;4.40;3.47;;;23.90;38.70;;;;;;5066094;28;45326;-71
2023/06/02 04:11:39;;;;;;;3.75;3.25;;;23.90;39.40;;;;;;5065197;28;45565;-72
2023/06/02 04:14:07;;;;;;;3.72;3.13;;;23.80;38.70;;;;;;5064930;28;45383;-71
2023/06/02 04:16:35;;;;;;;4.03;3.40;;;23.80;38.80;;;;;;5066017;28;45293;-71
2023/06/02 04:19:02;;;;;;;4.20;3.42;;;23.80;38.80;;;;;;5065959;28;45386;-72
2023/06/02 04:21:29;;;;;;;4.22;3.50;;;23.80;38.80;;;;;;5065367;28;48701;-72
2023/06/02 04:23:56;;;;;;;3.75;3.45;;;23.80;38.70;;;;;;5064813;28;45571;-72
2023/06/02 04:26:23;;;;;;;3.88;2.83;;;23.80;38.90;;;;;;5065591;28;45344;-72
2023/06/02 04:28:50;;;;;;;4.00;3.20;;;23.80;38.90;;;;;;5068858;28;45324;-72
2023/06/02 04:31:26;;;;;;;3.78;3.47;;;23.80;38.90;;;;;;5068753;28;46503;-71
2023/06/02 04:33:54;;;;;;;3.53;3.20;;;23.80;38.90;;;;;;5068931;28;45309;-72
2023/06/02 04:36:21;;;;;;;3.83;3.17;;;23.80;38.90;;;;;;5068892;28;45316;-72
2023/06/02 04:38:48;;;;;;;3.55;3.25;;;23.70;38.90;;;;;;5069084;28;45385;-72
2023/06/02 04:41:15;;;;;;;4.07;3.40;;;23.70;39.00;;;;;;5068543;28;46408;-72
2023/06/02 04:43:42;;;;;;;5.22;3.70;;;23.70;39.00;;;;;;5069000;28;45159;-72
2023/06/02 04:46:10;;;;;;;4.50;3.40;;;23.70;39.00;;;;;;5068932;28;45351;-72
2023/06/02 04:48:39;;;;;;;4.05;3.08;;;23.70;39.00;;;;;;5069008;28;45368;-72
2023/06/02 04:51:08;;;;;;;3.30;2.75;;;23.70;39.10;;;;;;5068372;28;45743;-72
2023/06/02 04:53:34;;;;;;;4.18;3.55;;;23.70;39.10;;;;;;5068544;28;45366;-72
2023/06/02 04:56:02;;;;;;;3.47;3.15;;;23.70;39.10;;;;;;5068668;28;45404;-72
2023/06/02 04:58:29;;;;;;;3.65;3.20;;;23.70;39.20;;;;;;5068887;28;45483;-72
2023/06/02 05:00:56;;;;;;;3.95;3.15;;;23.70;39.20;;;;;;5067646;28;46775;-72
2023/06/02 05:03:22;;;;;;;3.97;3.33;;;23.70;39.20;;;;;;5068215;28;45296;-72
2023/06/02 05:05:49;;;;;;;4.38;3.45;;;23.70;39.20;;;;;;5068509;28;45445;-72
2023/06/02 05:08:18;;;;;;;4.07;3.45;;;23.70;39.20;;;;;;5068725;28;45376;-72
2023/06/02 05:10:45;;;;;;;3.20;2.90;;;23.60;39.10;;;;;;5068390;28;46700;-72
2023/06/02 05:13:13;;;;;;;4.35;3.33;;;23.60;39.20;;;;;;5068774;28;45315;-72
2023/06/02 05:15:39;;;;;;;4.07;3.47;;;23.60;39.20;;;;;;5068582;28;45459;-72
2023/06/02 05:18:07;;;;;;;3.42;3.13;;;23.60;39.20;;;;;;5068600;28;45374;-72
2023/06/02 05:20:33;;;;;;;3.17;2.80;;;23.60;39.20;;;;;;5068338;28;46637;-72
2023/06/02 05:23:00;;;;;;;3.40;3.03;;;23.60;39.20;;;;;;5068141;28;45307;-72
2023/06/02 05:25:29;;;;;;;4.35;3.47;;;23.60;39.10;;;;;;5068279;28;45247;-72
2023/06/02 05:27:55;;;;;;;3.63;3.30;;;23.60;39.20;;;;;;5068499;28;45377;-72
2023/06/02 05:30:22;;;;;;;3.90;3.22;;;23.60;39.20;;;;;;5067925;28;45410;-72
2023/06/02 05:32:49;;;;;;;3.67;3.30;;;23.60;39.20;;;;;;5068160;28;45460;-72
2023/06/02 05:35:16;;;;;;;3.67;3.25;;;23.60;39.20;;;;;;5068021;28;45263;-72
2023/06/02 05:37:43;;;;;;;4.20;3.80;;;23.60;39.30;;;;;;5068356;28;45240;-71
2023/06/02 05:40:11;;;;;;;5.07;3.47;;;23.60;39.30;;;;;;5067002;28;46655;-71
2023/06/02 05:42:40;;;;;;;3.28;2.97;;;23.60;39.20;;;;;;5068122;28;45285;-71
2023/06/02 05:45:07;;;;;;;4.70;3.33;;;23.60;39.10;;;;;;5067704;28;45257;-72
2023/06/02 05:47:34;;;;;;;3.67;3.38;;;23.60;39.10;;;;;;5067445;28;45315;-72
2023/06/02 05:50:01;;;;;;;3.53;3.00;;;23.60;39.20;;;;;;5067952;28;45355;-72
2023/06/02 05:52:28;;;;;;;4.00;3.20;;;23.60;39.30;;;;;;5067993;28;45460;-72
2023/06/02 05:54:55;;;;;;;3.45;2.90;;;23.60;39.30;;;;;;5068040;28;45320;-72
2023/06/02 05:57:22;;;;;;;4.07;2.95;;;23.60;39.30;;;;;;5068042;28;45137;-71
2023/06/02 05:59:50;;;;;;;3.13;2.83;;;23.60;39.20;;;;;;5067889;28;46638;-72
2023/06/02 06:02:17;;;;;;;3.72;3.42;;;23.60;39.20;;;;;;5066927;28;45301;-72
2023/06/02 06:04:44;;;;;;;3.75;2.83;;;23.60;39.20;;;;;;5067742;28;45324;-72
2023/06/02 06:07:11;;;;;;;3.85;3.30;;;23.60;39.20;;;;;;5068109;28;45301;-72
2023/06/02 06:09:37;;;;;;;3.53;3.15;;;23.60;39.20;;;;;;5067170;28;45258;-72
2023/06/02 06:12:05;;;;;;;3.60;3.30;;;23.60;39.20;;;;;;5067127;28;45333;-72
2023/06/02 06:14:32;;;;;;;4.32;3.50;;;23.60;39.40;;;;;;5067510;27;45262;-72
2023/06/02 06:17:00;;;;;;;4.20;3.13;;;23.60;39.20;;;;;;5067131;28;45383;-72
2023/06/02 06:19:26;;;;;;;4.70;3.15;;;23.60;39.20;;;;;;5067149;28;47285;-71
2023/06/02 06:21:53;;;;;;;4.05;3.53;;;23.60;39.30;;;;;;5067405;28;45144;-71
2023/06/02 06:24:20;;;;;;;3.72;3.20;;;23.60;39.30;;;;;;5067472;28;45405;-71
2023/06/02 06:26:47;;;;;;;3.60;3.08;;;23.60;39.30;;;;;;5067341;28;45372;-71
2023/06/02 06:29:14;;;;;;;3.97;3.22;;;23.60;39.30;;;;;;5066661;28;46651;-72
2023/06/02 06:31:41;;;;;;;3.40;3.05;;;23.60;39.30;;;;;;5066411;28;45339;-72
2023/06/02 06:34:10;;;;;;;3.65;3.10;;;23.60;39.30;;;;;;5067196;28;45291;-72
2023/06/02 06:36:37;;;;;;;3.50;3.20;;;23.70;39.40;;;;;;5067130;28;45400;-72
2023/06/02 06:39:04;;;;;;;5.32;3.17;;;23.70;39.40;;;;;;5066562;28;46694;-72
2023/06/02 06:41:31;;;;;;;3.20;2.90;;;23.70;39.40;;;;;;5066455;28;45341;-72
2023/06/02 06:43:58;;;;;;;3.50;3.05;;;23.70;39.40;;;;;;5066507;28;45428;-72
2023/06/02 06:46:26;;;;;;;3.25;2.95;;;23.70;39.50;;;;;;5066879;28;45309;-72
2023/06/02 06:48:53;;;;;;;3.83;3.47;;;23.70;39.40;;;;;;5066584;28;46591;-72
2023/06/02 06:51:21;;;;;;;3.60;2.97;;;23.70;40.10;;;;;;5066654;28;45371;-72
2023/06/02 06:53:48;;;;;;;4.07;2.88;;;23.70;39.40;;;;;;5066833;28;45356;-72
2023/06/02 06:56:15;;;;;;;3.45;3.15;;;23.70;39.50;;;;;;5066953;28;45304;-72
2023/06/02 06:58:42;;;;;;;3.38;3.08;;;23.70;39.50;;;;;;5066523;28;46333;-72
2023/06/02 07:01:08;;;;;;;3.17;2.88;;;23.70;39.50;;;;;;5066469;28;45391;-72
2023/06/02 07:03:35;;;;;;;4.13;3.25;;;23.70;39.50;;;;;;5066865;28;45481;-72
2023/06/02 07:06:02;;;;;;;3.60;2.95;;;23.70;39.50;;;;;;5066681;28;45328;-71
2023/06/02 07:08:30;;;;;;;3.67;3.38;;;23.70;39.60;;;;;;5066539;28;45307;-72
2023/06/02 07:10:57;;;;;;;3.35;3.05;;;23.70;40.20;;;;;;5066262;28;45367;-71
2023/06/02 07:13:26;;;;;;;3.63;3.15;;;23.80;39.60;;;;;;5066247;28;45388;-72
2023/06/02 07:15:53;;;;;;;4.30;3.65;;;23.80;39.80;;;;;;5066170;28;45416;-72
2023/06/02 07:18:20;;;;;;;7.25;3.38;;;23.80;39.70;;;;;;5066186;28;45420;-72
2023/06/02 07:20:47;;;;;;;4.32;3.42;;;23.80;39.70;;;;;;5066471;28;45391;-72
2023/06/02 07:23:14;;;;;;;4.25;3.60;;;23.80;39.70;;;;;;5066540;28;45304;-72
2023/06/02 07:25:42;;;;;;;3.67;3.38;;;23.80;39.70;;;;;;5066501;28;45304;-73
2023/06/02 07:28:09;;;;;;;3.90;3.08;;;23.80;39.70;;;;;;5066098;28;45484;-72
2023/06/02 07:30:36;;;;;;;4.70;3.22;;;23.80;39.70;;;;;;5066081;28;45381;-72
2023/06/02 07:33:02;;;;;;;4.18;3.33;;;23.90;39.80;;;;;;5066300;28;45378;-72
2023/06/02 07:35:29;;;;;;;4.50;3.35;;;23.90;39.70;;;;;;5066150;28;45362;-72
2023/06/02 07:37:56;;;;;;;4.20;3.50;;;23.90;39.80;;;;;;5065925;28;46322;-71
2023/06/02 07:40:23;;;;;;;3.63;3.28;;;23.90;39.80;;;;;;5066173;28;45261;-72
2023/06/02 07:42:52;;;;;;;5.00;3.40;;;23.90;39.80;;;;;;5066119;28;45166;-72
2023/06/02 07:45:19;;;;;;;3.40;3.00;;;23.90;39.80;;;;;;5066420;28;45414;-72
2023/06/02 07:47:46;;;;;;;5.32;3.25;;;23.90;39.80;;;;;;5065805;28;46416;-72
2023/06/02 07:50:13;;;;;;;3.80;3.40;;;23.90;39.70;;;;;;5065787;28;45337;-71
2023/06/02 07:52:40;;;;;;;3.42;3.13;;;23.90;39.80;;;;;;5066016;28;45282;-72
2023/06/02 07:55:08;;;;;;;3.85;3.25;;;23.90;39.80;;;;;;5066073;28;45276;-72
2023/06/02 07:57:34;;;;;;;4.50;3.22;;;24.00;39.80;;;;;;5065706;28;47312;-72
2023/06/02 08:00:11;;;;;;;3.45;3.10;;;24.00;39.80;;;;;;5065661;28;45331;-72
2023/06/02 08:02:40;;;;;;;3.22;2.90;;;24.00;39.80;;;;;;5067258;28;45312;-71
2023/06/02 08:05:07;;;;;;;5.00;3.25;;;24.00;39.70;;;;;;5069184;28;45512;-71
2023/06/02 08:07:34;;;;;;;4.20;3.38;;;24.00;39.80;;;;;;5069021;28;47590;-72
2023/06/02 08:10:01;;;;;;;3.67;3.30;;;24.00;39.80;;;;;;5068506;28;45395;-71
2023/06/02 08:12:28;;;;;;;5.22;3.08;;;24.00;39.90;;;;;;5069019;28;45298;-72
2023/06/02 08:14:55;;;;;;;4.40;3.10;;;24.10;39.70;;;;;;5069198;28;45189;-72
2023/06/02 08:17:29;;;;;;;6.13;3.30;;;24.10;39.60;;;;;;5068857;28;45388;-72
2023/06/02 08:19:56;;;;;;;4.65;3.45;;;24.10;39.60;;;;;;5069093;28;45324;-72
2023/06/02 08:22:22;;;;;;;3.40;3.10;;;24.10;39.60;;;;;;5065801;28;45359;-72
2023/06/02 08:24:50;;;;;;;11.85;3.45;;;24.10;39.70;;;;;;5063932;28;45404;-72
2023/06/02 08:27:18;;;;;;;8.82;3.83;;;24.10;40.10;;;;;;5055804;28;46366;-71
2023/06/02 08:29:45;;;;;;;12.50;3.80;;;24.10;40.20;;;;;;5057450;28;45379;-73
2023/06/02 08:32:12;;;;;;;14.38;3.60;;;24.20;40.20;;;;;;5067012;28;45386;-75
2023/06/02 08:34:41;;;;;;;6.25;3.45;;;24.20;40.00;;;;;;5069246;28;45371;-76
2023/06/02 08:37:09;;;;;;;4.97;3.20;;;24.20;40.00;;;;;;5054053;28;45464;-75
2023/06/02 08:39:36;;;;;;;10.65;3.53;;;24.20;39.90;;;;;;5068547;28;45441;-74
2023/06/02 08:42:03;;;;;;;6.50;3.80;;;24.30;40.00;;;;;;5068433;28;45320;-72
2023/06/02 08:44:30;;;;;;;9.30;5.88;;;24.30;40.00;;;;;;5068863;28;45542;-72
2023/06/02 08:46:57;;;;;;;14.90;9.68;;;24.40;40.10;;;;;;5065213;28;46462;-71
2023/06/02 08:49:24;;;;;;;7.72;6.78;;;24.50;40.00;;;;;;5067335;28;45288;-71
2023/06/02 08:51:53;;;;;;;7.35;5.32;;;24.50;39.80;;;;;;5068409;28;45375;-73
2023/06/02 08:54:20;;;;;;;10.00;4.20;;;24.50;39.50;;;;;;5062119;28;45454;-74
2023/06/02 08:56:49;;;;;;;12.10;3.97;;;24.60;39.40;;;;;;5055980;28;45452;-74
2023/06/02 08:59:19;;;;;;;5.45;3.90;;;24.60;39.40;;;;;;5069520;28;45529;-77
2023/06/02 09:01:46;;;;;;;4.55;3.90;;;24.60;39.30;;;;;;5051696;28;45395;-74
2023/06/02 09:04:13;;;;;;;8.27;4.30;;;24.70;39.90;;;;;;5060179;28;45395;-74
2023/06/02 09:06:40;;;;;;;9.88;3.83;;;24.70;39.30;;;;;;5052648;28;45474;-72
2023/06/02 09:09:09;;;;;;;10.40;7.03;;;24.70;39.40;;;;;;5055203;28;45439;-71
2023/06/02 09:11:35;;;;;;;12.65;11.00;;;24.80;39.60;;;;;;5056791;28;45372;-73
2023/06/02 09:14:02;;;;;;;11.90;9.25;;;24.80;39.90;;;;;;5067184;28;45546;-73
2023/06/02 09:16:39;;;;;;;11.85;5.55;;;24.90;39.90;;;;;;5068052;28;46552;-73
2023/06/02 09:19:06;;;;;;;7.80;4.85;;;25.00;39.20;;;;;;5062207;28;45258;-73
2023/06/02 09:21:33;;;;;;;10.68;4.55;;;25.10;39.10;;;;;;5064339;28;45348;-77
2023/06/02 09:24:01;;;;;;;7.50;4.25;;;25.10;39.60;;;;;;5068359;28;45289;-78
2023/06/02 09:26:30;;;;;;;6.55;4.68;;;25.10;38.90;;;;;;5055749;28;45423;-78
2023/06/02 09:29:05;;;;;;;5.93;4.28;;;25.10;38.90;;;;;;5047271;28;45277;-76
2023/06/02 09:31:45;;;;;;;5.57;4.40;;;25.10;38.90;;;;;;5048043;28;45224;-73
2023/06/02 09:34:12;;;;;;;8.23;4.30;;;25.10;38.90;;;;;;5048097;28;45384;-74
2023/06/02 09:36:39;;;;;;;6.90;4.53;;;25.20;39.30;;;;;;5047223;28;45595;-73
2023/06/02 09:39:06;;;;;;;7.47;4.43;;;25.20;39.10;;;;;;5066919;28;45327;-71
2023/06/02 09:41:35;;;;;;;9.98;4.93;;;25.20;39.30;;;;;;5047607;28;45265;-73
2023/06/02 09:44:03;;;;;;;10.65;4.78;;;25.20;39.90;;;;;;5047893;28;45329;-73
2023/06/02 09:46:31;;;;;;;12.27;4.80;;;25.30;39.20;;;;;;5047186;28;46729;-76
2023/06/02 09:48:59;;;;;;;8.15;5.15;;;25.30;39.30;;;;;;5047784;28;45341;-74
2023/06/02 09:51:26;;;;;;;13.65;4.80;;;25.30;39.70;;;;;;5047764;28;45253;-74
2023/06/02 09:53:55;;;;;;;7.45;5.32;;;25.30;39.30;;;;;;5047709;28;45264;-73
2023/06/02 09:56:22;;;;;;;9.38;7.78;;;25.40;39.80;;;;;;5046701;28;47729;-74
2023/06/02 09:58:50;;;;;;;9.40;6.88;;;25.50;39.70;;;;;;5065576;28;45482;-74
2023/06/02 10:01:17;;;;;;;9.27;6.07;;;25.60;39.50;;;;;;5067822;28;45388;-74
2023/06/02 10:03:44;;;;;;;7.30;5.35;;;25.70;39.50;;;;;;5061394;28;45611;-76
2023/06/02 10:06:16;;;;;;;6.97;5.60;;;25.70;39.40;;;;;;5046605;28;45738;-74
2023/06/02 10:08:48;;;;;;;10.52;6.38;;;25.80;39.30;;;;;;5068671;28;45271;-73
2023/06/02 10:11:19;;;;;;;6.95;4.70;;;25.90;39.10;;;;;;5047389;28;45372;-72
2023/06/02 10:14:01;;;;;;;8.93;4.68;;;26.00;39.10;;;;;;5047316;28;45311;-71
2023/06/02 10:16:39;;;;;;;12.05;5.00;;;25.90;38.90;;;;;;5055990;28;46395;-72
2023/06/02 10:19:39;;;;;;;5.68;4.88;;;25.90;38.90;;;;;;5066195;28;45257;-74
2023/06/02 10:22:25;;;;;;;16.60;10.40;;;25.90;39.10;;;;;;5066280;28;45513;-73
2023/06/02 10:24:57;;;;;;;8.13;7.32;;;26.00;39.40;;;;;;5040186;28;45651;-73
2023/06/02 10:27:27;;;;;;;6.50;4.93;;;26.00;39.00;;;;;;5047827;28;45372;-73
2023/06/02 10:29:55;;;;;;;5.88;5.03;;;26.00;39.50;;;;;;5064036;28;45402;-74
2023/06/02 10:32:23;;;;;;;5.65;5.00;;;26.00;38.80;;;;;;5058680;28;44763;-73
2023/06/02 10:34:51;;;;;;;5.18;4.68;;;26.10;38.80;;;;;;5065120;28;45655;-73
2023/06/02 10:37:18;;;;;;;6.22;5.05;;;26.10;38.70;;;;;;5055741;28;45537;-74
2023/06/02 10:39:51;;;;;;;6.40;4.93;;;26.10;38.70;;;;;;5047597;28;45392;-72
2023/06/02 10:42:18;;;;;;;4.82;4.43;;;26.20;39.20;;;;;;5047248;28;45316;-73
2023/06/02 10:44:47;;;;;;;5.88;4.80;;;26.20;38.60;;;;;;5047246;28;45194;-72
2023/06/02 10:47:34;;;;;;;4.18;3.88;;;26.20;38.50;;;;;;5063561;28;45548;-73
2023/06/02 10:50:02;;;;;;;6.22;4.68;;;26.30;38.60;;;;;;5049360;28;45575;-73
2023/06/02 10:52:30;;;;;;;5.93;4.05;;;26.30;38.50;;;;;;5050478;28;45345;-73
2023/06/02 10:55:24;;;;;;;5.80;4.60;;;26.30;38.40;;;;;;5059932;28;45574;-72
2023/06/02 10:57:51;;;;;;;6.72;4.68;;;26.40;38.40;;;;;;5049727;28;45720;-73
2023/06/02 11:00:40;;;;;;;5.93;4.55;;;26.40;38.40;;;;;;5047576;28;45430;-72
2023/06/02 11:03:32;;;;;;;5.28;4.55;;;26.30;38.90;;;;;;5055189;28;45307;-71
2023/06/02 11:06:18;;;;;;;5.35;4.32;;;26.20;39.60;;;;;;5046502;28;45275;-72
2023/06/02 11:08:46;;;;;;;6.55;4.63;;;26.20;39.80;;;;;;5054064;28;46677;-71
2023/06/02 11:11:12;;;;;;;4.78;3.83;;;26.20;39.80;;;;;;5056643;28;45345;-71
2023/06/02 11:13:58;;;;;;;6.18;4.20;;;26.20;40.00;;;;;;5046287;28;45309;-72
2023/06/02 11:16:27;;;;;;;4.40;3.97;;;26.20;39.70;;;;;;5058299;28;45518;-72
2023/06/02 11:18:55;;;;;;;6.53;4.28;;;26.30;39.70;;;;;;5064610;28;45278;-72
2023/06/02 11:21:23;;;;;;;5.60;3.75;;;26.30;39.80;;;;;;5055650;28;45397;-72
2023/06/02 11:23:49;;;;;;;5.30;4.30;;;26.30;39.70;;;;;;5060494;28;45328;-72
2023/06/02 11:26:17;;;;;;;4.82;3.67;;;26.30;39.90;;;;;;5046260;28;45327;-72
2023/06/02 11:28:44;;;;;;;8.07;4.10;;;26.40;39.80;;;;;;5045980;28;45568;-72
2023/06/02 11:31:12;;;;;;;7.30;4.35;;;26.40;40.10;;;;;;5050515;28;45363;-72
2023/06/02 11:33:41;;;;;;;4.22;3.80;;;26.30;40.20;;;;;;5065411;28;45411;-72
2023/06/02 11:36:09;;;;;;;6.68;3.80;;;26.40;40.10;;;;;;5062731;28;45273;-71
2023/06/02 11:38:38;;;;;;;5.43;3.78;;;26.40;40.20;;;;;;5065212;28;46475;-71
2023/06/02 11:41:11;;;;;;;6.65;4.38;;;26.40;40.20;;;;;;5064340;28;45358;-71
2023/06/02 11:43:38;;;;;;;4.80;3.80;;;26.50;40.10;;;;;;5060843;28;45534;-72
2023/06/02 11:46:09;;;;;;;4.00;3.55;;;26.50;40.00;;;;;;5046099;28;45327;-71
2023/06/02 11:48:38;;;;;;;4.88;3.50;;;26.50;40.00;;;;;;5045796;28;45368;-71
2023/06/02 11:51:06;;;;;;;6.40;4.20;;;26.50;39.80;;;;;;5050216;28;45337;-71
2023/06/02 11:53:34;;;;;;;4.53;3.95;;;26.50;40.10;;;;;;5057225;27;45534;-72
2023/06/02 11:56:01;;;;;;;6.80;4.28;;;26.50;40.20;;;;;;5047176;28;45385;-72
2023/06/02 11:58:29;;;;;;;4.43;3.85;;;26.50;40.20;;;;;;5055514;28;46764;-71
2023/06/02 12:01:06;;;;;;;10.32;4.25;;;26.60;40.80;;;;;;5057961;28;45347;-71
2023/06/02 12:03:33;;;;;;;3.83;3.42;;;26.60;40.20;;;;;;5049491;28;45570;-71
2023/06/02 12:06:08;;;;;;;4.25;3.85;;;26.70;40.00;;;;;;5065258;28;45466;-72
2023/06/02 12:08:36;;;;;;;6.03;3.83;;;26.70;40.20;;;;;;5048185;28;45060;-72
2023/06/02 12:11:03;;;;;;;6.78;3.70;;;26.80;40.10;;;;;;5061286;28;45303;-71
2023/06/02 12:13:31;;;;;;;7.25;3.50;;;26.80;40.00;;;;;;5066055;28;45383;-72
2023/06/02 12:15:59;;;;;;;4.50;3.40;;;26.90;39.90;;;;;;5065168;28;45296;-71
2023/06/02 12:18:30;;;;;;;6.45;4.00;;;27.00;39.80;;;;;;5047083;28;46401;-71
2023/06/02 12:20:56;;;;;;;6.90;4.07;;;27.00;39.80;;;;;;5048337;28;45332;-72
2023/06/02 12:23:23;;;;;;;4.50;3.55;;;27.00;39.80;;;;;;5060430;28;45319;-71
2023/06/02 12:25:59;;;;;;;4.95;4.40;;;27.10;39.60;;;;;;5051943;28;44980;-72
2023/06/02 12:28:28;;;;;;;5.68;3.35;;;27.10;39.50;;;;;;5053295;28;46549;-73
2023/06/02 12:30:55;;;;;;;4.82;3.65;;;27.10;39.70;;;;;;5064857;28;45344;-72
2023/06/02 12:33:22;;;;;;;9.23;8.15;;;27.10;39.80;;;;;;5064772;28;45328;-71
2023/06/02 12:35:49;;;;;;;5.85;4.57;;;27.20;40.40;;;;;;5064806;28;45532;-71
2023/06/02 12:38:16;;;;;;;15.32;13.23;;;27.30;40.30;;;;;;5064078;28;46375;-71
2023/06/02 12:40:43;;;;;;;11.15;8.07;;;27.40;39.50;;;;;;5069989;28;45394;-70
2023/06/02 12:43:12;;;;;;;7.88;4.88;;;27.50;39.90;;;;;;5063705;28;45398;-72
2023/06/02 12:45:38;;;;;;;5.40;4.43;;;27.60;39.60;;;;;;5061222;28;45404;-73
2023/06/02 12:48:05;;;;;;;6.70;4.70;;;27.70;39.40;;;;;;5064095;28;45423;-73
2023/06/02 12:50:32;;;;;;;6.53;4.47;;;27.80;39.40;;;;;;5053929;28;45491;-71